Ogden, Arkansas
Current Conditions -  °F | °C
As of 1:53 AM on Friday 19 Dec 2014 (Local Time) from KTXK Reporting Station
Haze Haze  
Wind Chill: 42°   Ceiling: 300
Heat Index: 44°   Visibility: 4mi
Dew Point: 43°   Wind: 5mph
Humidity: 96%   Direction: 60°ENE
Pressure: 30.18"   Gusts: NA
Location:  33.58°N, 94.04°W
Report Text: KTXK 190753Z AUTO 06004KT 4SM BR OVC003 07/06 A3018 RMK AO2 SLP219 T00670061
Loading
Personal Weather Stations






























Interactive Weather Map New forecast layout! Learn more

10-Day Weather Forecast

Advertisements
Track Severe Weather on mobile